sensor_id;sensor_type;location;lat;lon;timestamp;P1;durP1;ratioP1;P2;durP2;ratioP2
43664;SDS011;29263;48.172;11.484;2023-03-01T00:01:15;15.30;;;9.30;;
43664;SDS011;29263;48.172;11.484;2023-03-01T00:03:43;19.17;;;11.23;;
43664;SDS011;29263;48.172;11.484;2023-03-01T00:06:09;16.10;;;9.47;;
43664;SDS011;29263;48.172;11.484;2023-03-01T00:08:35;16.40;;;10.30;;
43664;SDS011;29263;48.172;11.484;2023-03-01T00:11:13;16.23;;;9.87;;
43664;SDS011;29263;48.172;11.484;2023-03-01T00:13:47;14.93;;;9.43;;
43664;SDS011;29263;48.172;11.484;2023-03-01T00:16:16;14.77;;;9.93;;
43664;SDS011;29263;48.172;11.484;2023-03-01T00:18:44;16.35;;;9.93;;
43664;SDS011;29263;48.172;11.484;2023-03-01T00:21:09;16.00;;;10.30;;
43664;SDS011;29263;48.172;11.484;2023-03-01T00:23:35;17.03;;;10.03;;
43664;SDS011;29263;48.172;11.484;2023-03-01T00:26:02;15.80;;;10.50;;
43664;SDS011;29263;48.172;11.484;2023-03-01T00:28:31;16.27;;;9.93;;
43664;SDS011;29263;48.172;11.484;2023-03-01T00:31:01;16.97;;;9.73;;
43664;SDS011;29263;48.172;11.484;2023-03-01T00:33:32;15.70;;;10.17;;
43664;SDS011;29263;48.172;11.484;2023-03-01T00:35:58;16.37;;;9.83;;
43664;SDS011;29263;48.172;11.484;2023-03-01T00:38:24;15.80;;;9.97;;
43664;SDS011;29263;48.172;11.484;2023-03-01T00:40:50;16.70;;;10.43;;
43664;SDS011;29263;48.172;11.484;2023-03-01T00:43:16;19.87;;;10.83;;
43664;SDS011;29263;48.172;11.484;2023-03-01T00:45:41;18.77;;;10.97;;
43664;SDS011;29263;48.172;11.484;2023-03-01T00:48:07;17.13;;;10.53;;
43664;SDS011;29263;48.172;11.484;2023-03-01T00:50:32;14.13;;;9.60;;
43664;SDS011;29263;48.172;11.484;2023-03-01T00:52:58;15.37;;;10.13;;
43664;SDS011;29263;48.172;11.484;2023-03-01T00:55:24;17.47;;;10.27;;
43664;SDS011;29263;48.172;11.484;2023-03-01T00:57:50;15.83;;;9.73;;
43664;SDS011;29263;48.172;11.484;2023-03-01T01:00:16;15.47;;;9.80;;
43664;SDS011;29263;48.172;11.484;2023-03-01T01:02:42;18.03;;;10.60;;
43664;SDS011;29263;48.172;11.484;2023-03-01T01:05:08;19.63;;;10.37;;
43664;SDS011;29263;48.172;11.484;2023-03-01T01:07:37;14.82;;;9.20;;
43664;SDS011;29263;48.172;11.484;2023-03-01T01:10:03;19.53;;;10.57;;
43664;SDS011;29263;48.172;11.484;2023-03-01T01:12:29;16.53;;;10.10;;
43664;SDS011;29263;48.172;11.484;2023-03-01T01:14:55;15.30;;;9.70;;
43664;SDS011;29263;48.172;11.484;2023-03-01T01:17:21;15.57;;;9.80;;
43664;SDS011;29263;48.172;11.484;2023-03-01T01:19:47;17.10;;;10.37;;
43664;SDS011;29263;48.172;11.484;2023-03-01T01:22:12;13.90;;;9.47;;
43664;SDS011;29263;48.172;11.484;2023-03-01T01:24:38;17.93;;;10.53;;
43664;SDS011;29263;48.172;11.484;2023-03-01T01:27:03;16.53;;;9.87;;
43664;SDS011;29263;48.172;11.484;2023-03-01T01:29:32;16.37;;;10.30;;
43664;SDS011;29263;48.172;11.484;2023-03-01T01:31:58;16.63;;;10.40;;
43664;SDS011;29263;48.172;11.484;2023-03-01T01:34:23;17.63;;;9.17;;
43664;SDS011;29263;48.172;11.484;2023-03-01T01:36:52;16.10;;;10.60;;
43664;SDS011;29263;48.172;11.484;2023-03-01T01:39:19;18.43;;;10.23;;
43664;SDS011;29263;48.172;11.484;2023-03-01T01:41:47;18.55;;;9.95;;
43664;SDS011;29263;48.172;11.484;2023-03-01T01:44:18;18.90;;;10.20;;
43664;SDS011;29263;48.172;11.484;2023-03-01T01:46:49;16.90;;;9.77;;
43664;SDS011;29263;48.172;11.484;2023-03-01T01:49:25;17.50;;;10.40;;
43664;SDS011;29263;48.172;11.484;2023-03-01T01:51:57;16.37;;;10.57;;
43664;SDS011;29263;48.172;11.484;2023-03-01T01:54:34;16.47;;;10.03;;
43664;SDS011;29263;48.172;11.484;2023-03-01T01:57:15;16.83;;;10.03;;
43664;SDS011;29263;48.172;11.484;2023-03-01T01:59:45;15.07;;;9.73;;
43664;SDS011;29263;48.172;11.484;2023-03-01T02:02:15;19.97;;;10.73;;
43664;SDS011;29263;48.172;11.484;2023-03-01T02:04:41;17.33;;;10.50;;
43664;SDS011;29263;48.172;11.484;2023-03-01T02:07:13;17.00;;;10.67;;
43664;SDS011;29263;48.172;11.484;2023-03-01T02:09:45;16.33;;;9.93;;
43664;SDS011;29263;48.172;11.484;2023-03-01T02:12:13;15.33;;;10.37;;
43664;SDS011;29263;48.172;11.484;2023-03-01T02:14:42;16.17;;;9.55;;
43664;SDS011;29263;48.172;11.484;2023-03-01T02:17:07;13.73;;;9.70;;
43664;SDS011;29263;48.172;11.484;2023-03-01T02:22:07;15.67;;;10.07;;
43664;SDS011;29263;48.172;11.484;2023-03-01T02:27:19;16.37;;;10.00;;
43664;SDS011;29263;48.172;11.484;2023-03-01T02:29:49;15.47;;;9.90;;
43664;SDS011;29263;48.172;11.484;2023-03-01T02:32:15;17.47;;;10.60;;
43664;SDS011;29263;48.172;11.484;2023-03-01T02:34:51;15.73;;;9.80;;
43664;SDS011;29263;48.172;11.484;2023-03-01T02:37:18;18.05;;;9.90;;
43664;SDS011;29263;48.172;11.484;2023-03-01T02:39:50;15.97;;;10.57;;
43664;SDS011;29263;48.172;11.484;2023-03-01T02:42:24;15.23;;;9.67;;
43664;SDS011;29263;48.172;11.484;2023-03-01T02:44:55;18.73;;;10.60;;
43664;SDS011;29263;48.172;11.484;2023-03-01T02:47:21;16.67;;;9.83;;
43664;SDS011;29263;48.172;11.484;2023-03-01T02:49:46;14.50;;;10.07;;
43664;SDS011;29263;48.172;11.484;2023-03-01T02:52:23;16.50;;;9.60;;
43664;SDS011;29263;48.172;11.484;2023-03-01T02:57:36;20.00;;;10.37;;
43664;SDS011;29263;48.172;11.484;2023-03-01T03:00:05;16.50;;;10.23;;
43664;SDS011;29263;48.172;11.484;2023-03-01T03:02:34;14.20;;;9.27;;
43664;SDS011;29263;48.172;11.484;2023-03-01T03:05:11;14.30;;;10.07;;
43664;SDS011;29263;48.172;11.484;2023-03-01T03:07:41;14.23;;;9.95;;
43664;SDS011;29263;48.172;11.484;2023-03-01T03:10:09;12.87;;;9.50;;
43664;SDS011;29263;48.172;11.484;2023-03-01T03:12:39;15.07;;;10.33;;
43664;SDS011;29263;48.172;11.484;2023-03-01T03:15:05;15.37;;;10.13;;
43664;SDS011;29263;48.172;11.484;2023-03-01T03:17:36;16.70;;;10.15;;
43664;SDS011;29263;48.172;11.484;2023-03-01T03:20:06;15.33;;;10.03;;
43664;SDS011;29263;48.172;11.484;2023-03-01T03:22:36;15.50;;;9.93;;
43664;SDS011;29263;48.172;11.484;2023-03-01T03:25:06;16.48;;;10.43;;
43664;SDS011;29263;48.172;11.484;2023-03-01T03:27:39;21.47;;;11.07;;
43664;SDS011;29263;48.172;11.484;2023-03-01T03:30:07;17.00;;;10.73;;
43664;SDS011;29263;48.172;11.484;2023-03-01T03:32:37;17.93;;;10.20;;
43664;SDS011;29263;48.172;11.484;2023-03-01T03:35:03;14.97;;;10.80;;
43664;SDS011;29263;48.172;11.484;2023-03-01T03:37:37;18.73;;;10.40;;
43664;SDS011;29263;48.172;11.484;2023-03-01T03:40:22;15.57;;;10.03;;
43664;SDS011;29263;48.172;11.484;2023-03-01T03:42:48;18.23;;;10.30;;
43664;SDS011;29263;48.172;11.484;2023-03-01T03:45:14;16.37;;;10.53;;
43664;SDS011;29263;48.172;11.484;2023-03-01T03:47:41;15.77;;;10.30;;
43664;SDS011;29263;48.172;11.484;2023-03-01T03:50:07;16.03;;;10.27;;
43664;SDS011;29263;48.172;11.484;2023-03-01T03:52:34;16.63;;;10.87;;
43664;SDS011;29263;48.172;11.484;2023-03-01T03:54:59;17.37;;;10.93;;
43664;SDS011;29263;48.172;11.484;2023-03-01T03:57:25;15.20;;;9.80;;
43664;SDS011;29263;48.172;11.484;2023-03-01T03:59:50;17.83;;;11.47;;
43664;SDS011;29263;48.172;11.484;2023-03-01T04:02:16;17.27;;;11.20;;
43664;SDS011;29263;48.172;11.484;2023-03-01T04:04:47;15.17;;;10.53;;
43664;SDS011;29263;48.172;11.484;2023-03-01T04:07:14;17.90;;;10.77;;
43664;SDS011;29263;48.172;11.484;2023-03-01T04:09:41;16.83;;;10.23;;
43664;SDS011;29263;48.172;11.484;2023-03-01T04:12:08;16.90;;;10.47;;
43664;SDS011;29263;48.172;11.484;2023-03-01T04:14:34;15.83;;;10.03;;
43664;SDS011;29263;48.172;11.484;2023-03-01T04:16:59;18.53;;;11.10;;
43664;SDS011;29263;48.172;11.484;2023-03-01T04:19:25;16.37;;;10.20;;
43664;SDS011;29263;48.172;11.484;2023-03-01T04:21:52;16.93;;;10.77;;
43664;SDS011;29263;48.172;11.484;2023-03-01T04:24:18;14.33;;;9.77;;
43664;SDS011;29263;48.172;11.484;2023-03-01T04:26:43;17.47;;;10.30;;
43664;SDS011;29263;48.172;11.484;2023-03-01T04:29:09;15.00;;;9.60;;
43664;SDS011;29263;48.172;11.484;2023-03-01T04:31:35;18.67;;;11.03;;
43664;SDS011;29263;48.172;11.484;2023-03-01T04:34:01;16.47;;;10.33;;
43664;SDS011;29263;48.172;11.484;2023-03-01T04:36:27;15.77;;;10.27;;
43664;SDS011;29263;48.172;11.484;2023-03-01T04:38:54;17.00;;;11.50;;
43664;SDS011;29263;48.172;11.484;2023-03-01T04:41:21;19.67;;;10.53;;
43664;SDS011;29263;48.172;11.484;2023-03-01T04:43:49;19.97;;;10.80;;
43664;SDS011;29263;48.172;11.484;2023-03-01T04:46:16;17.83;;;10.30;;
43664;SDS011;29263;48.172;11.484;2023-03-01T04:48:43;16.10;;;9.87;;
43664;SDS011;29263;48.172;11.484;2023-03-01T04:51:09;17.67;;;10.57;;
43664;SDS011;29263;48.172;11.484;2023-03-01T04:53:38;17.43;;;10.27;;
43664;SDS011;29263;48.172;11.484;2023-03-01T04:56:07;12.57;;;7.97;;
43664;SDS011;29263;48.172;11.484;2023-03-01T04:58:33;16.27;;;9.87;;
43664;SDS011;29263;48.172;11.484;2023-03-01T05:00:58;18.40;;;11.07;;
43664;SDS011;29263;48.172;11.484;2023-03-01T05:03:24;16.73;;;9.60;;
43664;SDS011;29263;48.172;11.484;2023-03-01T05:05:50;15.57;;;10.13;;
43664;SDS011;29263;48.172;11.484;2023-03-01T05:08:17;16.00;;;10.33;;
43664;SDS011;29263;48.172;11.484;2023-03-01T05:10:53;17.33;;;11.13;;
43664;SDS011;29263;48.172;11.484;2023-03-01T05:13:20;19.73;;;10.50;;
43664;SDS011;29263;48.172;11.484;2023-03-01T05:15:56;18.33;;;10.23;;
43664;SDS011;29263;48.172;11.484;2023-03-01T05:18:23;16.83;;;10.43;;
43664;SDS011;29263;48.172;11.484;2023-03-01T05:20:51;17.10;;;11.10;;
43664;SDS011;29263;48.172;11.484;2023-03-01T05:23:17;16.67;;;10.37;;
43664;SDS011;29263;48.172;11.484;2023-03-01T05:25:43;17.90;;;10.90;;
43664;SDS011;29263;48.172;11.484;2023-03-01T05:28:13;17.73;;;9.90;;
43664;SDS011;29263;48.172;11.484;2023-03-01T05:30:39;16.25;;;10.70;;
43664;SDS011;29263;48.172;11.484;2023-03-01T05:33:05;17.80;;;10.63;;
43664;SDS011;29263;48.172;11.484;2023-03-01T05:35:35;19.23;;;10.80;;
43664;SDS011;29263;48.172;11.484;2023-03-01T05:38:01;19.17;;;9.87;;
43664;SDS011;29263;48.172;11.484;2023-03-01T05:40:27;19.30;;;11.30;;
43664;SDS011;29263;48.172;11.484;2023-03-01T05:42:54;18.33;;;10.53;;
43664;SDS011;29263;48.172;11.484;2023-03-01T05:45:21;19.17;;;10.87;;
43664;SDS011;29263;48.172;11.484;2023-03-01T05:47:49;18.37;;;10.67;;
43664;SDS011;29263;48.172;11.484;2023-03-01T05:50:17;16.30;;;10.57;;
43664;SDS011;29263;48.172;11.484;2023-03-01T05:52:44;16.63;;;10.67;;
43664;SDS011;29263;48.172;11.484;2023-03-01T05:55:14;17.90;;;10.60;;
43664;SDS011;29263;48.172;11.484;2023-03-01T05:57:41;16.57;;;10.67;;
43664;SDS011;29263;48.172;11.484;2023-03-01T06:00:07;17.03;;;10.77;;
43664;SDS011;29263;48.172;11.484;2023-03-01T06:02:34;17.63;;;10.40;;
43664;SDS011;29263;48.172;11.484;2023-03-01T06:04:59;16.53;;;10.60;;
43664;SDS011;29263;48.172;11.484;2023-03-01T06:07:25;16.30;;;10.63;;
43664;SDS011;29263;48.172;11.484;2023-03-01T06:09:51;17.40;;;11.80;;
43664;SDS011;29263;48.172;11.484;2023-03-01T06:12:16;17.90;;;10.50;;
43664;SDS011;29263;48.172;11.484;2023-03-01T06:14:42;19.97;;;11.00;;
43664;SDS011;29263;48.172;11.484;2023-03-01T06:17:08;16.87;;;10.70;;
43664;SDS011;29263;48.172;11.484;2023-03-01T06:19:33;16.00;;;10.07;;
43664;SDS011;29263;48.172;11.484;2023-03-01T06:21:59;18.30;;;10.53;;
43664;SDS011;29263;48.172;11.484;2023-03-01T06:24:24;17.97;;;10.87;;
43664;SDS011;29263;48.172;11.484;2023-03-01T06:26:50;20.03;;;11.40;;
43664;SDS011;29263;48.172;11.484;2023-03-01T06:29:17;19.80;;;11.00;;
43664;SDS011;29263;48.172;11.484;2023-03-01T06:31:43;18.43;;;11.07;;
43664;SDS011;29263;48.172;11.484;2023-03-01T06:34:10;18.90;;;10.83;;
43664;SDS011;29263;48.172;11.484;2023-03-01T06:36:39;17.98;;;11.50;;
43664;SDS011;29263;48.172;11.484;2023-03-01T06:39:05;17.70;;;10.70;;
43664;SDS011;29263;48.172;11.484;2023-03-01T06:41:31;16.97;;;11.03;;
43664;SDS011;29263;48.172;11.484;2023-03-01T06:43:57;19.97;;;11.40;;
43664;SDS011;29263;48.172;11.484;2023-03-01T06:46:24;17.37;;;11.10;;
43664;SDS011;29263;48.172;11.484;2023-03-01T06:48:50;17.90;;;10.53;;
43664;SDS011;29263;48.172;11.484;2023-03-01T06:51:15;17.77;;;11.47;;
43664;SDS011;29263;48.172;11.484;2023-03-01T06:53:41;18.00;;;10.73;;
43664;SDS011;29263;48.172;11.484;2023-03-01T06:56:07;22.00;;;11.77;;
43664;SDS011;29263;48.172;11.484;2023-03-01T06:58:32;19.67;;;11.77;;
43664;SDS011;29263;48.172;11.484;2023-03-01T07:00:59;19.30;;;11.07;;
43664;SDS011;29263;48.172;11.484;2023-03-01T07:03:24;19.13;;;11.17;;
43664;SDS011;29263;48.172;11.484;2023-03-01T07:05:50;17.07;;;10.77;;
43664;SDS011;29263;48.172;11.484;2023-03-01T07:08:19;20.80;;;11.67;;
43664;SDS011;29263;48.172;11.484;2023-03-01T07:10:45;18.10;;;10.87;;
43664;SDS011;29263;48.172;11.484;2023-03-01T07:13:10;20.27;;;11.53;;
43664;SDS011;29263;48.172;11.484;2023-03-01T07:15:36;22.47;;;11.33;;
43664;SDS011;29263;48.172;11.484;2023-03-01T07:18:01;18.90;;;11.43;;
43664;SDS011;29263;48.172;11.484;2023-03-01T07:20:28;19.10;;;10.97;;
43664;SDS011;29263;48.172;11.484;2023-03-01T07:22:54;19.23;;;11.67;;
43664;SDS011;29263;48.172;11.484;2023-03-01T07:25:21;17.90;;;11.53;;
43664;SDS011;29263;48.172;11.484;2023-03-01T07:27:53;17.17;;;10.60;;
43664;SDS011;29263;48.172;11.484;2023-03-01T07:30:20;18.20;;;10.77;;
43664;SDS011;29263;48.172;11.484;2023-03-01T07:32:46;21.67;;;11.37;;
43664;SDS011;29263;48.172;11.484;2023-03-01T07:35:12;16.70;;;10.73;;
43664;SDS011;29263;48.172;11.484;2023-03-01T07:37:39;17.43;;;10.47;;
43664;SDS011;29263;48.172;11.484;2023-03-01T07:40:05;20.17;;;11.27;;
43664;SDS011;29263;48.172;11.484;2023-03-01T07:42:32;18.63;;;11.23;;
43664;SDS011;29263;48.172;11.484;2023-03-01T07:44:57;20.23;;;11.30;;
43664;SDS011;29263;48.172;11.484;2023-03-01T07:47:23;17.43;;;10.73;;
43664;SDS011;29263;48.172;11.484;2023-03-01T07:49:49;17.03;;;10.43;;
43664;SDS011;29263;48.172;11.484;2023-03-01T07:52:14;17.37;;;10.87;;
43664;SDS011;29263;48.172;11.484;2023-03-01T07:54:42;18.40;;;11.13;;
43664;SDS011;29263;48.172;11.484;2023-03-01T07:57:09;18.92;;;11.35;;
43664;SDS011;29263;48.172;11.484;2023-03-01T07:59:35;20.77;;;11.70;;
43664;SDS011;29263;48.172;11.484;2023-03-01T08:02:00;21.97;;;11.50;;
43664;SDS011;29263;48.172;11.484;2023-03-01T08:04:26;19.57;;;11.50;;
43664;SDS011;29263;48.172;11.484;2023-03-01T08:06:52;20.93;;;11.23;;
43664;SDS011;29263;48.172;11.484;2023-03-01T08:09:18;18.40;;;10.40;;
43664;SDS011;29263;48.172;11.484;2023-03-01T08:11:44;21.00;;;12.33;;
43664;SDS011;29263;48.172;11.484;2023-03-01T08:14:10;19.80;;;11.73;;
43664;SDS011;29263;48.172;11.484;2023-03-01T08:16:35;20.07;;;11.93;;
43664;SDS011;29263;48.172;11.484;2023-03-01T08:19:08;22.10;;;11.70;;
43664;SDS011;29263;48.172;11.484;2023-03-01T08:21:35;17.23;;;11.10;;
43664;SDS011;29263;48.172;11.484;2023-03-01T08:24:05;18.87;;;10.97;;
43664;SDS011;29263;48.172;11.484;2023-03-01T08:26:31;21.73;;;11.90;;
43664;SDS011;29263;48.172;11.484;2023-03-01T08:28:59;21.43;;;11.47;;
43664;SDS011;29263;48.172;11.484;2023-03-01T08:33:57;22.70;;;12.50;;
43664;SDS011;29263;48.172;11.484;2023-03-01T08:36:25;21.27;;;11.70;;
43664;SDS011;29263;48.172;11.484;2023-03-01T08:38:55;21.03;;;12.23;;
43664;SDS011;29263;48.172;11.484;2023-03-01T08:41:21;19.47;;;11.43;;
43664;SDS011;29263;48.172;11.484;2023-03-01T08:43:47;21.73;;;11.30;;
43664;SDS011;29263;48.172;11.484;2023-03-01T08:46:13;21.30;;;11.47;;
43664;SDS011;29263;48.172;11.484;2023-03-01T08:48:39;17.50;;;10.43;;
43664;SDS011;29263;48.172;11.484;2023-03-01T08:51:11;25.17;;;12.40;;
43664;SDS011;29263;48.172;11.484;2023-03-01T08:53:41;20.73;;;11.40;;
43664;SDS011;29263;48.172;11.484;2023-03-01T08:56:07;20.57;;;11.13;;
43664;SDS011;29263;48.172;11.484;2023-03-01T08:58:33;22.43;;;12.43;;
43664;SDS011;29263;48.172;11.484;2023-03-01T09:01:00;19.27;;;11.80;;
43664;SDS011;29263;48.172;11.484;2023-03-01T09:03:26;21.37;;;12.07;;
43664;SDS011;29263;48.172;11.484;2023-03-01T09:05:52;18.70;;;10.77;;
43664;SDS011;29263;48.172;11.484;2023-03-01T09:08:18;19.77;;;10.17;;
43664;SDS011;29263;48.172;11.484;2023-03-01T09:10:45;21.03;;;12.13;;
43664;SDS011;29263;48.172;11.484;2023-03-01T09:13:11;16.37;;;10.63;;
43664;SDS011;29263;48.172;11.484;2023-03-01T09:15:37;20.30;;;11.03;;
43664;SDS011;29263;48.172;11.484;2023-03-01T09:18:03;18.67;;;10.60;;
43664;SDS011;29263;48.172;11.484;2023-03-01T09:20:30;18.53;;;11.47;;
43664;SDS011;29263;48.172;11.484;2023-03-01T09:22:56;19.40;;;11.53;;
43664;SDS011;29263;48.172;11.484;2023-03-01T09:25:25;18.73;;;10.73;;
43664;SDS011;29263;48.172;11.484;2023-03-01T09:27:51;19.77;;;11.43;;
43664;SDS011;29263;48.172;11.484;2023-03-01T09:30:17;19.37;;;11.10;;
43664;SDS011;29263;48.172;11.484;2023-03-01T09:32:43;18.27;;;11.60;;
43664;SDS011;29263;48.172;11.484;2023-03-01T09:35:09;18.27;;;10.97;;
43664;SDS011;29263;48.172;11.484;2023-03-01T09:37:36;21.20;;;11.37;;
43664;SDS011;29263;48.172;11.484;2023-03-01T09:40:03;17.27;;;11.40;;
43664;SDS011;29263;48.172;11.484;2023-03-01T09:42:31;18.67;;;11.17;;
43664;SDS011;29263;48.172;11.484;2023-03-01T09:45:04;23.55;;;12.35;;
43664;SDS011;29263;48.172;11.484;2023-03-01T09:47:51;19.03;;;11.07;;
43664;SDS011;29263;48.172;11.484;2023-03-01T09:50:18;18.20;;;11.60;;
43664;SDS011;29263;48.172;11.484;2023-03-01T09:58:51;20.50;;;11.80;;
43664;SDS011;29263;48.172;11.484;2023-03-01T10:06:25;21.10;;;12.23;;
43664;SDS011;29263;48.172;11.484;2023-03-01T10:08:53;18.27;;;11.00;;
43664;SDS011;29263;48.172;11.484;2023-03-01T10:11:23;18.23;;;11.03;;
43664;SDS011;29263;48.172;11.484;2023-03-01T10:16:51;18.00;;;10.93;;
43664;SDS011;29263;48.172;11.484;2023-03-01T10:19:24;19.03;;;11.23;;
43664;SDS011;29263;48.172;11.484;2023-03-01T10:22:02;19.67;;;11.27;;
43664;SDS011;29263;48.172;11.484;2023-03-01T10:24:35;22.03;;;12.13;;
43664;SDS011;29263;48.172;11.484;2023-03-01T10:27:04;18.20;;;12.17;;
43664;SDS011;29263;48.172;11.484;2023-03-01T10:30:05;15.67;;;10.50;;
43664;SDS011;29263;48.172;11.484;2023-03-01T10:32:27;20.33;;;11.47;;
43664;SDS011;29263;48.172;11.484;2023-03-01T10:34:53;20.43;;;12.10;;
43664;SDS011;29263;48.172;11.484;2023-03-01T10:37:20;21.03;;;12.17;;
43664;SDS011;29263;48.172;11.484;2023-03-01T10:40:05;20.63;;;10.98;;
43664;SDS011;29263;48.172;11.484;2023-03-01T10:42:34;18.50;;;11.50;;
43664;SDS011;29263;48.172;11.484;2023-03-01T10:50:33;19.63;;;12.37;;
43664;SDS011;29263;48.172;11.484;2023-03-01T10:53:00;21.40;;;12.00;;
43664;SDS011;29263;48.172;11.484;2023-03-01T10:55:33;24.95;;;12.27;;
43664;SDS011;29263;48.172;11.484;2023-03-01T10:58:08;23.97;;;11.93;;
43664;SDS011;29263;48.172;11.484;2023-03-01T11:03:25;21.17;;;12.53;;
43664;SDS011;29263;48.172;11.484;2023-03-01T11:05:53;16.70;;;11.57;;
43664;SDS011;29263;48.172;11.484;2023-03-01T11:11:13;19.93;;;12.37;;
43664;SDS011;29263;48.172;11.484;2023-03-01T11:13:57;19.60;;;11.97;;
43664;SDS011;29263;48.172;11.484;2023-03-01T11:16:29;18.23;;;12.33;;
43664;SDS011;29263;48.172;11.484;2023-03-01T11:19:21;18.60;;;11.90;;
43664;SDS011;29263;48.172;11.484;2023-03-01T11:24:26;20.37;;;12.53;;
43664;SDS011;29263;48.172;11.484;2023-03-01T11:27:03;19.83;;;12.20;;
43664;SDS011;29263;48.172;11.484;2023-03-01T11:32:04;16.47;;;11.80;;
43664;SDS011;29263;48.172;11.484;2023-03-01T11:37:21;17.43;;;11.27;;
43664;SDS011;29263;48.172;11.484;2023-03-01T11:40:13;20.97;;;10.87;;
43664;SDS011;29263;48.172;11.484;2023-03-01T11:54:09;18.83;;;12.27;;
43664;SDS011;29263;48.172;11.484;2023-03-01T11:57:00;18.17;;;11.90;;
43664;SDS011;29263;48.172;11.484;2023-03-01T12:10:24;20.70;;;11.87;;
43664;SDS011;29263;48.172;11.484;2023-03-01T12:12:54;19.83;;;12.40;;
43664;SDS011;29263;48.172;11.484;2023-03-01T12:15:37;20.87;;;11.93;;
43664;SDS011;29263;48.172;11.484;2023-03-01T12:21:21;22.53;;;11.60;;
43664;SDS011;29263;48.172;11.484;2023-03-01T12:26:58;21.20;;;12.27;;
43664;SDS011;29263;48.172;11.484;2023-03-01T12:29:42;18.90;;;12.73;;
43664;SDS011;29263;48.172;11.484;2023-03-01T12:32:21;23.97;;;13.93;;
43664;SDS011;29263;48.172;11.484;2023-03-01T12:40:45;18.43;;;12.03;;
43664;SDS011;29263;48.172;11.484;2023-03-01T12:43:36;21.13;;;12.83;;
43664;SDS011;29263;48.172;11.484;2023-03-01T12:51:50;21.87;;;14.20;;
43664;SDS011;29263;48.172;11.484;2023-03-01T12:54:36;22.67;;;12.50;;
43664;SDS011;29263;48.172;11.484;2023-03-01T13:03:04;20.67;;;12.23;;
43664;SDS011;29263;48.172;11.484;2023-03-01T13:11:25;21.30;;;13.00;;
43664;SDS011;29263;48.172;11.484;2023-03-01T13:13:51;21.47;;;12.87;;
43664;SDS011;29263;48.172;11.484;2023-03-01T13:16:40;22.33;;;12.90;;
43664;SDS011;29263;48.172;11.484;2023-03-01T13:21:42;23.83;;;13.63;;
43664;SDS011;29263;48.172;11.484;2023-03-01T13:32:24;20.17;;;12.95;;
43664;SDS011;29263;48.172;11.484;2023-03-01T13:34:53;17.77;;;12.00;;
43664;SDS011;29263;48.172;11.484;2023-03-01T13:37:25;21.47;;;13.03;;
43664;SDS011;29263;48.172;11.484;2023-03-01T13:39:55;21.97;;;13.57;;
43664;SDS011;29263;48.172;11.484;2023-03-01T13:45:02;23.17;;;14.73;;
43664;SDS011;29263;48.172;11.484;2023-03-01T13:47:52;19.47;;;12.97;;
43664;SDS011;29263;48.172;11.484;2023-03-01T13:50:28;20.47;;;12.90;;
43664;SDS011;29263;48.172;11.484;2023-03-01T13:52:57;20.67;;;13.15;;
43664;SDS011;29263;48.172;11.484;2023-03-01T13:55:29;20.58;;;12.63;;
43664;SDS011;29263;48.172;11.484;2023-03-01T13:58:04;22.90;;;13.23;;
43664;SDS011;29263;48.172;11.484;2023-03-01T14:00:40;20.90;;;13.17;;
43664;SDS011;29263;48.172;11.484;2023-03-01T14:03:11;18.20;;;11.30;;
43664;SDS011;29263;48.172;11.484;2023-03-01T14:05:40;22.00;;;13.30;;
43664;SDS011;29263;48.172;11.484;2023-03-01T14:08:21;19.83;;;12.48;;
43664;SDS011;29263;48.172;11.484;2023-03-01T14:13:39;19.13;;;11.43;;
43664;SDS011;29263;48.172;11.484;2023-03-01T14:24:35;18.13;;;12.37;;
43664;SDS011;29263;48.172;11.484;2023-03-01T14:29:36;18.20;;;11.00;;
43664;SDS011;29263;48.172;11.484;2023-03-01T14:32:25;18.30;;;11.93;;
43664;SDS011;29263;48.172;11.484;2023-03-01T14:34:52;18.30;;;12.38;;
43664;SDS011;29263;48.172;11.484;2023-03-01T14:37:20;16.63;;;10.63;;
43664;SDS011;29263;48.172;11.484;2023-03-01T14:39:49;16.20;;;10.20;;
43664;SDS011;29263;48.172;11.484;2023-03-01T14:42:18;15.38;;;10.98;;
43664;SDS011;29263;48.172;11.484;2023-03-01T14:44:47;17.38;;;10.95;;
43664;SDS011;29263;48.172;11.484;2023-03-01T14:47:19;14.75;;;11.05;;
43664;SDS011;29263;48.172;11.484;2023-03-01T14:50:28;15.35;;;10.60;;
43664;SDS011;29263;48.172;11.484;2023-03-01T14:53:00;15.13;;;9.80;;
43664;SDS011;29263;48.172;11.484;2023-03-01T14:55:30;15.07;;;10.73;;
43664;SDS011;29263;48.172;11.484;2023-03-01T14:58:04;14.32;;;10.07;;
43664;SDS011;29263;48.172;11.484;2023-03-01T15:00:31;13.13;;;9.63;;
43664;SDS011;29263;48.172;11.484;2023-03-01T15:03:11;15.95;;;10.45;;
43664;SDS011;29263;48.172;11.484;2023-03-01T15:05:57;12.98;;;9.23;;
43664;SDS011;29263;48.172;11.484;2023-03-01T15:08:25;14.40;;;10.32;;
43664;SDS011;29263;48.172;11.484;2023-03-01T15:13:41;14.43;;;10.77;;
43664;SDS011;29263;48.172;11.484;2023-03-01T15:16:13;14.15;;;10.88;;
43664;SDS011;29263;48.172;11.484;2023-03-01T15:19:15;15.45;;;9.93;;
43664;SDS011;29263;48.172;11.484;2023-03-01T15:21:32;14.57;;;11.10;;
43664;SDS011;29263;48.172;11.484;2023-03-01T15:24:05;15.50;;;10.82;;
43664;SDS011;29263;48.172;11.484;2023-03-01T15:26:44;14.20;;;9.98;;
43664;SDS011;29263;48.172;11.484;2023-03-01T15:29:19;15.38;;;10.40;;
43664;SDS011;29263;48.172;11.484;2023-03-01T15:34:34;15.83;;;10.10;;
43664;SDS011;29263;48.172;11.484;2023-03-01T15:37:05;15.47;;;10.27;;
43664;SDS011;29263;48.172;11.484;2023-03-01T15:39:55;13.43;;;10.07;;
43664;SDS011;29263;48.172;11.484;2023-03-01T15:47:41;14.80;;;10.87;;
43664;SDS011;29263;48.172;11.484;2023-03-01T15:50:17;15.30;;;10.00;;
43664;SDS011;29263;48.172;11.484;2023-03-01T15:52:43;15.87;;;10.57;;
43664;SDS011;29263;48.172;11.484;2023-03-01T15:55:16;15.63;;;10.83;;
43664;SDS011;29263;48.172;11.484;2023-03-01T15:57:45;15.80;;;10.30;;
43664;SDS011;29263;48.172;11.484;2023-03-01T16:00:12;14.87;;;10.33;;
43664;SDS011;29263;48.172;11.484;2023-03-01T16:02:39;14.67;;;9.67;;
43664;SDS011;29263;48.172;11.484;2023-03-01T16:05:08;16.50;;;9.73;;
43664;SDS011;29263;48.172;11.484;2023-03-01T16:07:55;16.97;;;9.57;;
43664;SDS011;29263;48.172;11.484;2023-03-01T16:10:21;19.37;;;9.83;;
43664;SDS011;29263;48.172;11.484;2023-03-01T16:12:48;15.67;;;9.50;;
43664;SDS011;29263;48.172;11.484;2023-03-01T16:15:36;16.13;;;9.03;;
43664;SDS011;29263;48.172;11.484;2023-03-01T16:18:02;14.97;;;9.20;;
43664;SDS011;29263;48.172;11.484;2023-03-01T16:20:30;15.20;;;9.57;;
43664;SDS011;29263;48.172;11.484;2023-03-01T16:23:03;14.77;;;9.60;;
43664;SDS011;29263;48.172;11.484;2023-03-01T16:25:31;13.83;;;8.50;;
43664;SDS011;29263;48.172;11.484;2023-03-01T16:27:57;16.13;;;9.10;;
43664;SDS011;29263;48.172;11.484;2023-03-01T16:30:26;13.97;;;9.03;;
43664;SDS011;29263;48.172;11.484;2023-03-01T16:32:51;16.27;;;9.67;;
43664;SDS011;29263;48.172;11.484;2023-03-01T16:35:18;15.43;;;9.10;;
43664;SDS011;29263;48.172;11.484;2023-03-01T16:37:45;20.03;;;9.50;;